KHRL/HRL METAR and TAF weather

Enter ICAO airport designator
Station Type Date Time Source
KHRL METAR 2020/09/23 01:52 UTC NOAA

KHRL 230152Z 00000KT 10SM CLR 27/22 A2986 RMK AO2 SLP110 T02670222


Station Type Date Time Source
KHRL Decoded METAR 2020/09/23 01:52 UTC NOAA

RIO GRANDE VALLEY, TX, United States (KHRL) 26-13N 97-39W 10M
Sep 22, 2020 - 09:52 PM EDT / 2020.09.23 0152 UTC
Wind: Calm:0
Visibility: 10 mile(s):0
Sky conditions: clear
Temperature: 80.1 F (26.7 C)
Dew Point: 72.0 F (22.2 C)
Relative Humidity: 76%
Pressure (altimeter): 29.86 in. Hg (1011 hPa)
ob: KHRL 230152Z 00000KT 10SM CLR 27/22 A2986 RMK AO2 SLP110 T02670222
cycle: 2

Station Type Date Time Source
KHRL TAF 2020/09/22 18:46 UTC NOAA

TAF KHRL 221743Z 2218/2318 31012KT P6SM FEW029
FM230000 31005KT P6SM SCT070 BKN200
FM231500 32010KT P6SM FEW045 FEW200

Example: see airport list